createdAt,value
2019-03-13T00:01:24.826Z,97.40
2019-03-13T00:03:01.107Z,97.30
2019-03-13T00:04:37.432Z,97.30
2019-03-13T00:06:14.584Z,97.30
2019-03-13T00:07:50.740Z,97.30
2019-03-13T00:09:28.384Z,97.20
2019-03-13T00:11:04.676Z,97.30
2019-03-13T00:12:40.939Z,97.20
2019-03-13T00:14:17.385Z,97.20
2019-03-13T00:15:54.306Z,97.10
2019-03-13T00:17:30.633Z,97.00
2019-03-13T00:19:07.230Z,96.80
2019-03-13T00:20:43.361Z,96.70
2019-03-13T00:22:19.745Z,96.90
2019-03-13T00:23:57.372Z,96.80
2019-03-13T00:25:33.713Z,96.80
2019-03-13T00:27:10.169Z,96.70
2019-03-13T00:28:46.497Z,96.60
2019-03-13T00:30:34.447Z,96.70
2019-03-13T00:32:11.170Z,96.60
2019-03-13T00:33:47.414Z,96.50
2019-03-13T00:35:23.757Z,96.40
2019-03-13T00:37:00.056Z,96.50
2019-03-13T00:38:36.351Z,96.30
2019-03-13T00:40:13.631Z,96.30
2019-03-13T00:41:49.887Z,96.20
2019-03-13T00:43:26.091Z,96.20
2019-03-13T00:45:02.419Z,96.20
2019-03-13T00:46:39.859Z,96.30
2019-03-13T00:48:16.205Z,96.30
2019-03-13T00:49:52.417Z,96.30
2019-03-13T00:51:28.770Z,96.40
2019-03-13T00:53:04.943Z,96.30
2019-03-13T00:54:41.277Z,96.30
2019-03-13T00:56:17.490Z,96.30
2019-03-13T00:57:53.878Z,96.40
2019-03-13T00:59:30.323Z,96.40
2019-03-13T01:01:18.214Z,96.40
2019-03-13T01:02:55.475Z,96.40
2019-03-13T01:04:36.338Z,96.40
2019-03-13T01:06:20.459Z,96.40
2019-03-13T01:07:56.791Z,96.40
2019-03-13T01:09:32.941Z,96.40
2019-03-13T01:11:09.149Z,96.40
2019-03-13T01:12:45.402Z,96.40
2019-03-13T01:14:21.578Z,96.40
2019-03-13T01:15:57.644Z,96.40
2019-03-13T01:17:34.058Z,96.40
2019-03-13T01:19:12.847Z,96.30
2019-03-13T01:20:51.759Z,96.30
2019-03-13T01:22:28.365Z,96.20
2019-03-13T01:24:04.705Z,96.20
2019-03-13T01:25:41.047Z,96.20
2019-03-13T01:27:17.361Z,96.00
2019-03-13T01:28:53.229Z,96.20
2019-03-13T01:30:30.948Z,96.30
2019-03-13T01:32:20.387Z,96.30
2019-03-13T01:33:59.357Z,96.20
2019-03-13T01:35:37.076Z,96.20
2019-03-13T01:37:13.228Z,96.20
2019-03-13T01:38:49.404Z,96.10
2019-03-13T01:40:26.836Z,96.10
2019-03-13T01:42:03.011Z,96.10
2019-03-13T01:43:39.091Z,96.10
2019-03-13T01:45:18.057Z,96.10
2019-03-13T01:46:54.292Z,96.10
2019-03-13T01:48:30.513Z,96.10
2019-03-13T01:50:14.081Z,96.00
2019-03-13T01:51:50.225Z,96.00
2019-03-13T01:53:26.334Z,96.00
2019-03-13T01:55:02.488Z,96.00
2019-03-13T01:56:38.664Z,95.90
2019-03-13T01:58:14.845Z,95.80
2019-03-13T01:59:51.015Z,95.80
2019-03-13T02:01:27.102Z,95.90
2019-03-13T02:03:03.278Z,95.70
2019-03-13T02:04:39.453Z,95.70
2019-03-13T02:06:15.728Z,95.60
2019-03-13T02:07:51.675Z,95.60
2019-03-13T02:09:27.791Z,95.50
2019-03-13T02:11:04.002Z,95.30
2019-03-13T02:12:40.303Z,95.20
2019-03-13T02:14:16.619Z,95.30
2019-03-13T02:15:52.952Z,95.20
2019-03-13T02:17:29.169Z,95.10
2019-03-13T02:19:05.390Z,95.00
2019-03-13T02:20:41.466Z,95.00
2019-03-13T02:22:17.782Z,95.00
2019-03-13T02:23:53.953Z,94.80
2019-03-13T02:25:31.323Z,94.90
2019-03-13T02:27:07.390Z,94.80
2019-03-13T02:28:43.505Z,94.80
2019-03-13T02:30:24.614Z,94.80
2019-03-13T02:32:00.661Z,94.80
2019-03-13T02:33:36.961Z,94.80
2019-03-13T02:35:13.317Z,94.70
2019-03-13T02:36:49.519Z,94.70
2019-03-13T02:38:25.668Z,94.70
2019-03-13T02:40:01.845Z,94.60
2019-03-13T02:41:38.098Z,94.60
2019-03-13T02:43:14.242Z,94.50
2019-03-13T02:44:50.417Z,94.40
2019-03-13T02:46:26.659Z,94.30
2019-03-13T02:48:04.025Z,94.30
2019-03-13T02:49:40.173Z,94.30
2019-03-13T02:51:16.316Z,94.20
2019-03-13T02:52:52.601Z,94.20
2019-03-13T02:54:28.689Z,93.90
2019-03-13T02:56:04.903Z,93.90
2019-03-13T02:57:41.090Z,94.00
2019-03-13T02:59:17.157Z,93.60
2019-03-13T03:00:58.812Z,93.60
2019-03-13T03:02:36.605Z,93.50
2019-03-13T03:04:12.824Z,93.60
2019-03-13T03:05:48.978Z,93.40
2019-03-13T03:07:25.379Z,93.60
2019-03-13T03:09:13.265Z,93.40
2019-03-13T03:10:49.414Z,93.50
2019-03-13T03:12:25.589Z,93.10
2019-03-13T03:14:01.689Z,93.20
2019-03-13T03:15:37.842Z,93.00
2019-03-13T03:17:14.150Z,92.90
2019-03-13T03:18:50.330Z,92.80
2019-03-13T03:20:26.594Z,92.70
2019-03-13T03:22:02.810Z,92.90
2019-03-13T03:23:38.977Z,92.50
2019-03-13T03:25:17.914Z,92.60
2019-03-13T03:26:54.165Z,92.30
2019-03-13T03:28:30.321Z,92.20
2019-03-13T03:30:22.343Z,92.40
2019-03-13T03:31:58.602Z,92.40
2019-03-13T03:33:36.130Z,92.30
2019-03-13T03:35:12.330Z,92.10
2019-03-13T03:36:48.473Z,92.20
2019-03-13T03:38:24.608Z,92.10
2019-03-13T03:40:00.766Z,91.80
2019-03-13T03:41:36.894Z,91.90
2019-03-13T03:43:12.962Z,92.10
2019-03-13T03:44:49.206Z,92.10
2019-03-13T03:46:25.522Z,91.80
2019-03-13T03:48:01.588Z,91.90
2019-03-13T03:49:37.756Z,91.80
2019-03-13T03:51:14.025Z,91.60
2019-03-13T03:52:49.979Z,91.80
2019-03-13T03:54:26.054Z,91.70
2019-03-13T03:56:02.312Z,91.70
2019-03-13T03:57:38.534Z,91.60
2019-03-13T03:59:14.949Z,91.60
2019-03-13T04:00:51.191Z,91.60
2019-03-13T04:02:27.330Z,91.40
2019-03-13T04:04:03.470Z,90.90
2019-03-13T04:05:39.712Z,91.20
2019-03-13T04:07:16.221Z,91.10
2019-03-13T04:08:52.367Z,91.40
2019-03-13T04:10:28.482Z,91.30
2019-03-13T04:12:04.801Z,91.10
2019-03-13T04:13:44.409Z,91.40
2019-03-13T04:15:19.012Z,90.80
2019-03-13T04:16:55.314Z,90.90
2019-03-13T04:18:31.456Z,90.80
2019-03-13T04:20:16.822Z,91.50
2019-03-13T04:21:53.035Z,90.70
2019-03-13T04:23:29.270Z,90.90
2019-03-13T04:25:27.596Z,90.70
2019-03-13T04:27:03.938Z,91.00
2019-03-13T04:28:39.958Z,90.40
2019-03-13T04:30:16.213Z,90.10
2019-03-13T04:31:52.150Z,90.00
2019-03-13T04:33:28.592Z,90.30
2019-03-13T04:35:05.829Z,90.20
2019-03-13T04:36:42.069Z,90.10
2019-03-13T04:38:19.380Z,90.00
2019-03-13T04:39:55.364Z,89.50
2019-03-13T04:41:31.450Z,89.50
2019-03-13T04:43:07.768Z,90.10
2019-03-13T04:44:43.837Z,88.60
2019-03-13T04:46:19.981Z,89.70
2019-03-13T04:47:56.218Z,89.90
2019-03-13T04:49:32.360Z,89.00
2019-03-13T04:51:08.438Z,88.90
2019-03-13T04:52:44.749Z,88.70
2019-03-13T04:54:20.896Z,88.60
2019-03-13T04:55:57.096Z,88.80
2019-03-13T04:57:33.279Z,88.90
2019-03-13T04:59:09.288Z,89.10
2019-03-13T05:00:45.541Z,87.90
2019-03-13T05:02:21.690Z,87.40
2019-03-13T05:03:57.939Z,87.50
2019-03-13T05:05:52.981Z,87.10
2019-03-13T05:07:29.130Z,86.70
2019-03-13T05:09:06.956Z,86.80
2019-03-13T05:10:43.302Z,86.60
2019-03-13T05:12:19.401Z,87.70
2019-03-13T05:13:55.473Z,86.90
2019-03-13T05:15:31.627Z,86.50
2019-03-13T05:17:07.765Z,86.50
2019-03-13T05:18:43.773Z,87.10
2019-03-13T05:20:20.023Z,87.30
2019-03-13T05:21:56.236Z,86.90
2019-03-13T05:23:32.376Z,87.80
2019-03-13T05:25:08.886Z,87.30
2019-03-13T05:26:45.036Z,86.80
2019-03-13T05:28:21.212Z,85.50
2019-03-13T05:29:57.245Z,86.40
2019-03-13T05:31:33.488Z,86.00
2019-03-13T05:33:09.460Z,85.80
2019-03-13T05:34:46.757Z,86.20
2019-03-13T05:36:22.878Z,87.60
2019-03-13T05:37:58.954Z,86.40
2019-03-13T05:39:36.260Z,86.90
2019-03-13T05:41:12.482Z,86.20
2019-03-13T05:42:48.548Z,85.70
2019-03-13T05:44:24.614Z,85.90
2019-03-13T05:46:00.865Z,86.10
2019-03-13T05:47:38.287Z,86.40
2019-03-13T05:49:15.200Z,86.40
2019-03-13T05:50:51.339Z,85.80
2019-03-13T05:52:27.601Z,86.50
2019-03-13T05:54:03.674Z,86.50
2019-03-13T05:55:39.821Z,85.40
2019-03-13T05:57:16.093Z,85.50
2019-03-13T05:58:52.333Z,85.30
2019-03-13T06:00:29.341Z,85.60
2019-03-13T06:02:05.556Z,85.80
2019-03-13T06:03:41.564Z,85.30
2019-03-13T06:05:17.952Z,84.90
2019-03-13T06:06:54.055Z,83.40
2019-03-13T06:08:30.266Z,84.20
2019-03-13T06:10:12.341Z,83.10
2019-03-13T06:11:48.413Z,82.70
2019-03-13T06:13:24.530Z,83.90
2019-03-13T06:15:03.458Z,84.10
2019-03-13T06:16:38.434Z,84.40
2019-03-13T06:18:14.511Z,84.00
2019-03-13T06:19:50.384Z,84.70
2019-03-13T06:21:27.743Z,82.60
2019-03-13T06:23:03.844Z,82.20
2019-03-13T06:24:39.907Z,84.30
2019-03-13T06:26:15.707Z,83.10
2019-03-13T06:27:51.770Z,82.30
2019-03-13T06:29:31.747Z,82.20
2019-03-13T06:31:07.389Z,82.20
2019-03-13T06:32:43.644Z,83.20
2019-03-13T06:34:19.632Z,82.80
2019-03-13T06:35:55.705Z,82.60
2019-03-13T06:37:31.870Z,81.00
2019-03-13T06:39:08.842Z,82.40
2019-03-13T06:40:44.974Z,82.40
2019-03-13T06:42:21.045Z,81.50
2019-03-13T06:43:58.537Z,80.60
2019-03-13T06:45:34.741Z,79.70
2019-03-13T06:47:11.033Z,79.20
2019-03-13T06:48:47.103Z,78.00
2019-03-13T06:50:25.603Z,78.60
2019-03-13T06:52:01.504Z,78.10
2019-03-13T06:53:37.717Z,78.80
2019-03-13T06:55:14.239Z,77.40
2019-03-13T06:56:50.513Z,78.60
2019-03-13T06:58:28.211Z,78.70
2019-03-13T07:00:24.637Z,78.10
2019-03-13T07:02:09.589Z,78.80
2019-03-13T07:03:47.572Z,77.80
2019-03-13T07:05:25.384Z,77.80
2019-03-13T07:07:09.147Z,78.20
2019-03-13T07:08:50.217Z,78.90
2019-03-13T07:10:28.274Z,78.10
2019-03-13T07:12:15.263Z,78.10
2019-03-13T07:13:53.121Z,78.10
2019-03-13T07:15:39.934Z,77.10
2019-03-13T07:17:23.687Z,78.40
2019-03-13T07:19:17.417Z,77.70
2019-03-13T07:20:58.050Z,77.90
2019-03-13T07:22:35.832Z,78.00
2019-03-13T07:24:13.740Z,77.70
2019-03-13T07:25:54.163Z,78.40
2019-03-13T07:27:49.028Z,78.60
2019-03-13T07:29:29.360Z,78.70
2019-03-13T07:31:07.205Z,78.80
2019-03-13T07:32:56.955Z,79.10
2019-03-13T07:34:52.959Z,77.30
2019-03-13T07:36:46.641Z,77.80
2019-03-13T07:38:24.335Z,78.30
2019-03-13T07:40:18.504Z,79.10
2019-03-13T07:41:58.953Z,78.50
2019-03-13T07:43:40.888Z,77.60
2019-03-13T07:45:19.543Z,76.80
2019-03-13T07:47:13.547Z,77.80
2019-03-13T07:48:54.186Z,77.20
2019-03-13T07:50:39.078Z,76.20
2019-03-13T07:52:33.147Z,75.80
2019-03-13T07:54:13.959Z,75.30
2019-03-13T07:56:11.373Z,75.70
2019-03-13T07:58:05.048Z,76.40
2019-03-13T07:59:49.068Z,76.30
2019-03-13T08:01:45.071Z,74.00
2019-03-13T08:03:35.236Z,74.80
2019-03-13T08:05:22.938Z,75.00
2019-03-13T08:07:11.150Z,73.30
2019-03-13T08:09:07.411Z,73.30
2019-03-13T08:10:57.486Z,74.10
2019-03-13T08:12:51.852Z,73.90
2019-03-13T08:14:46.193Z,73.50
2019-03-13T08:16:23.972Z,73.20
2019-03-13T08:18:04.876Z,73.40
2019-03-13T08:19:43.452Z,73.40
2019-03-13T08:21:22.157Z,72.10
2019-03-13T08:23:00.102Z,72.00
2019-03-13T08:24:41.877Z,72.50
2019-03-13T08:26:22.365Z,72.20
2019-03-13T08:28:16.040Z,71.50
2019-03-13T08:29:53.770Z,71.00
2019-03-13T08:31:31.487Z,70.70
2019-03-13T08:33:09.350Z,71.00
2019-03-13T08:34:47.134Z,70.10
2019-03-13T08:36:24.916Z,69.70
2019-03-13T08:38:05.379Z,70.90
2019-03-13T08:39:43.158Z,71.30
2019-03-13T08:41:20.965Z,71.70
2019-03-13T08:42:58.675Z,71.90
2019-03-13T08:44:34.619Z,71.40
2019-03-13T08:46:12.332Z,73.50
2019-03-13T08:48:08.142Z,72.30
2019-03-13T08:49:50.322Z,71.20
2019-03-13T08:51:30.947Z,72.00
2019-03-13T08:53:06.868Z,70.20
2019-03-13T08:55:03.082Z,70.40
2019-03-13T08:56:59.765Z,71.20
2019-03-13T08:58:37.420Z,69.90
2019-03-13T09:00:38.158Z,70.30
2019-03-13T09:02:32.198Z,69.10
2019-03-13T09:04:12.900Z,68.20
2019-03-13T09:05:58.144Z,68.20
2019-03-13T09:07:34.145Z,69.50
2019-03-13T09:09:11.989Z,69.40
2019-03-13T09:11:00.351Z,70.00
2019-03-13T09:12:54.399Z,70.90
2019-03-13T09:14:50.622Z,71.10
2019-03-13T09:16:31.464Z,70.40
2019-03-13T09:18:12.196Z,69.70
2019-03-13T09:20:05.131Z,69.90
2019-03-13T09:21:42.844Z,70.00
2019-03-13T09:23:36.364Z,68.40
2019-03-13T09:25:21.740Z,68.80
2019-03-13T09:26:59.483Z,68.80
2019-03-13T09:28:41.052Z,69.70
2019-03-13T09:30:18.904Z,68.30
2019-03-13T09:32:13.129Z,69.00
2019-03-13T09:33:50.911Z,69.20
2019-03-13T09:35:32.376Z,68.70
2019-03-13T09:37:10.146Z,69.10
2019-03-13T09:38:55.191Z,68.90
2019-03-13T09:40:42.280Z,68.80
2019-03-13T09:42:36.095Z,69.00
2019-03-13T09:44:29.072Z,68.80
2019-03-13T09:46:05.032Z,69.00
2019-03-13T09:47:42.812Z,69.70
2019-03-13T09:49:38.461Z,70.30
2019-03-13T09:51:31.296Z,70.60
2019-03-13T09:53:17.807Z,71.10
2019-03-13T09:54:55.529Z,71.40
2019-03-13T09:56:34.597Z,71.20
2019-03-13T09:58:25.835Z,71.50
2019-03-13T10:00:15.558Z,71.90
2019-03-13T10:01:53.431Z,71.60
2019-03-13T10:03:29.421Z,71.50
2019-03-13T10:05:18.150Z,70.90
2019-03-13T10:06:58.984Z,70.80
2019-03-13T10:08:39.857Z,71.90
2019-03-13T10:10:36.143Z,71.60
2019-03-13T10:12:16.767Z,71.60
2019-03-13T10:13:57.145Z,71.50
2019-03-13T10:15:43.770Z,71.70
2019-03-13T10:17:27.640Z,71.10
2019-03-13T10:19:21.807Z,71.50
2019-03-13T10:21:05.406Z,71.60
2019-03-13T10:22:47.611Z,71.40
2019-03-13T10:24:32.371Z,70.30
2019-03-13T10:26:26.342Z,70.10
2019-03-13T10:28:05.031Z,70.50
2019-03-13T10:29:54.976Z,70.90
2019-03-13T10:31:46.712Z,71.60
2019-03-13T10:33:26.235Z,72.00
2019-03-13T10:35:09.668Z,71.80
2019-03-13T10:36:50.730Z,71.90
2019-03-13T10:38:46.760Z,72.10
2019-03-13T10:40:42.156Z,72.50
2019-03-13T10:42:20.494Z,73.00
2019-03-13T10:44:07.063Z,73.70
2019-03-13T10:45:53.801Z,74.70
2019-03-13T10:47:37.831Z,75.00
2019-03-13T10:49:23.169Z,76.50
2019-03-13T10:50:59.240Z,77.50
2019-03-13T10:52:52.482Z,78.20
2019-03-13T10:54:47.591Z,78.90
2019-03-13T10:56:32.247Z,79.60
2019-03-13T10:58:08.141Z,80.00
2019-03-13T10:59:45.912Z,80.60
2019-03-13T11:01:32.527Z,81.10
2019-03-13T11:03:13.342Z,81.20
2019-03-13T11:04:51.182Z,81.60
2019-03-13T11:06:54.034Z,82.10
2019-03-13T11:08:32.443Z,82.30
2019-03-13T11:10:18.544Z,82.20
2019-03-13T11:12:03.566Z,82.30
2019-03-13T11:13:47.323Z,82.40
2019-03-13T11:15:30.741Z,82.50
2019-03-13T11:17:08.543Z,82.40
2019-03-13T11:18:46.239Z,82.70
2019-03-13T11:20:32.445Z,82.60
2019-03-13T11:22:16.160Z,82.90
2019-03-13T11:24:02.025Z,83.10
2019-03-13T11:25:56.297Z,83.20
2019-03-13T11:27:44.356Z,83.50
2019-03-13T11:29:25.866Z,83.70
2019-03-13T11:31:05.315Z,83.90
2019-03-13T11:32:44.440Z,84.00
2019-03-13T11:34:38.986Z,83.60
2019-03-13T11:36:28.663Z,83.90
2019-03-13T11:38:09.575Z,84.10
2019-03-13T11:39:50.102Z,84.00
2019-03-13T11:41:30.792Z,84.00
2019-03-13T11:43:12.960Z,84.90
2019-03-13T11:44:50.072Z,84.00
2019-03-13T11:46:33.580Z,84.30
2019-03-13T11:48:23.432Z,84.90
2019-03-13T11:50:01.265Z,84.70
2019-03-13T11:51:48.437Z,84.90
2019-03-13T11:53:26.326Z,85.00
2019-03-13T11:55:04.094Z,85.10
2019-03-13T11:56:41.944Z,84.30
2019-03-13T11:58:36.271Z,84.30
2019-03-13T12:00:28.790Z,84.20
2019-03-13T12:02:23.277Z,84.30
2019-03-13T12:04:17.240Z,84.60
2019-03-13T12:05:53.318Z,84.90
2019-03-13T12:07:40.190Z,84.70
2019-03-13T12:09:26.997Z,84.90
2019-03-13T12:11:17.227Z,84.80
2019-03-13T12:12:53.250Z,84.60
2019-03-13T12:14:33.460Z,84.60
2019-03-13T12:16:12.411Z,84.60
2019-03-13T12:17:51.252Z,84.70
2019-03-13T12:19:45.394Z,84.50
2019-03-13T12:21:38.481Z,84.50
2019-03-13T12:23:25.234Z,84.70
2019-03-13T12:25:08.798Z,84.40
2019-03-13T12:27:01.729Z,84.30
2019-03-13T12:28:39.427Z,84.40
2019-03-13T12:30:16.397Z,84.50
2019-03-13T12:31:57.067Z,84.40
2019-03-13T12:33:40.725Z,84.50
2019-03-13T12:35:19.784Z,84.70
2019-03-13T12:37:03.450Z,85.30
2019-03-13T12:38:39.557Z,85.10
2019-03-13T12:40:20.581Z,84.30
2019-03-13T12:42:05.562Z,84.40
2019-03-13T12:43:58.701Z,84.20
2019-03-13T12:45:42.560Z,84.30
2019-03-13T12:47:25.811Z,84.20
2019-03-13T12:49:09.550Z,84.20
2019-03-13T12:50:47.494Z,84.00
2019-03-13T12:52:41.579Z,84.10
2019-03-13T12:54:26.422Z,84.00
2019-03-13T12:56:20.052Z,83.90
2019-03-13T12:57:57.990Z,83.80
2019-03-13T12:59:54.138Z,83.60
2019-03-13T13:01:40.740Z,83.50
2019-03-13T13:03:35.368Z,83.10
2019-03-13T13:05:29.335Z,82.80
2019-03-13T13:07:17.114Z,82.80
2019-03-13T13:08:53.048Z,82.00
2019-03-13T13:10:30.827Z,81.50
2019-03-13T13:12:26.644Z,80.70
2019-03-13T13:14:21.046Z,79.90
2019-03-13T13:16:15.205Z,78.80
2019-03-13T13:18:05.021Z,77.40
2019-03-13T13:19:41.140Z,76.90
2019-03-13T13:21:17.268Z,75.00
2019-03-13T13:22:53.069Z,74.30
2019-03-13T13:24:29.375Z,74.20
2019-03-13T13:26:05.781Z,74.20
2019-03-13T13:27:42.080Z,73.70
2019-03-13T13:29:18.349Z,72.30
2019-03-13T13:30:54.653Z,72.90
2019-03-13T13:32:30.852Z,72.50
2019-03-13T13:34:07.084Z,71.90
2019-03-13T13:35:43.368Z,72.50
2019-03-13T13:37:19.702Z,72.20
2019-03-13T13:39:08.824Z,72.80
2019-03-13T13:40:45.111Z,72.90
2019-03-13T13:42:21.243Z,73.20
2019-03-13T13:43:57.167Z,73.10
2019-03-13T13:45:37.402Z,73.50
2019-03-13T13:47:13.478Z,73.60
2019-03-13T13:48:49.712Z,73.00
2019-03-13T13:50:26.596Z,73.10
2019-03-13T13:52:02.857Z,73.40
2019-03-13T13:53:39.201Z,73.60
2019-03-13T13:55:15.329Z,73.80
2019-03-13T13:56:51.722Z,73.40
2019-03-13T13:58:28.683Z,72.60
2019-03-13T14:00:08.848Z,72.30
2019-03-13T14:01:45.053Z,72.30
2019-03-13T14:03:21.289Z,72.20
2019-03-13T14:04:57.374Z,71.80
2019-03-13T14:06:33.508Z,72.10
2019-03-13T14:08:09.802Z,72.00
2019-03-13T14:09:47.286Z,72.40
2019-03-13T14:11:23.479Z,72.00
2019-03-13T14:12:59.691Z,71.40
2019-03-13T14:14:35.815Z,71.40
2019-03-13T14:16:12.119Z,71.50
2019-03-13T14:17:48.349Z,71.10
2019-03-13T14:19:24.472Z,70.90
2019-03-13T14:21:01.980Z,71.00
2019-03-13T14:22:38.305Z,71.00
2019-03-13T14:24:17.253Z,70.60
2019-03-13T14:25:52.555Z,71.00
2019-03-13T14:27:28.715Z,70.90
2019-03-13T14:29:05.001Z,71.10
2019-03-13T14:30:41.229Z,70.70
2019-03-13T14:32:17.123Z,70.80
2019-03-13T14:33:53.350Z,70.30
2019-03-13T14:35:29.401Z,69.70
2019-03-13T14:37:05.701Z,69.50
2019-03-13T14:38:41.799Z,69.80
2019-03-13T14:40:20.398Z,68.30
2019-03-13T14:41:56.596Z,68.00
2019-03-13T14:43:32.972Z,68.00
2019-03-13T14:45:16.082Z,68.00
2019-03-13T14:46:52.283Z,67.60
2019-03-13T14:48:28.496Z,68.10
2019-03-13T14:50:06.370Z,68.90
2019-03-13T14:51:42.506Z,69.10
2019-03-13T14:53:18.800Z,68.80
2019-03-13T14:54:55.032Z,68.60
2019-03-13T14:56:31.177Z,68.90
2019-03-13T14:58:07.480Z,69.30
2019-03-13T14:59:43.650Z,70.00
2019-03-13T15:01:19.954Z,70.20
2019-03-13T15:02:56.451Z,70.70
2019-03-13T15:04:32.667Z,71.00
2019-03-13T15:06:08.900Z,71.20
2019-03-13T15:07:45.031Z,71.10
2019-03-13T15:09:22.397Z,70.70
2019-03-13T15:10:58.590Z,70.40
2019-03-13T15:12:34.647Z,70.00
2019-03-13T15:14:10.842Z,70.10
2019-03-13T15:15:47.142Z,69.50
2019-03-13T15:17:23.376Z,69.70
2019-03-13T15:18:59.533Z,70.20
2019-03-13T15:20:35.787Z,70.40
2019-03-13T15:22:11.912Z,70.20
2019-03-13T15:23:48.047Z,70.60
2019-03-13T15:25:24.257Z,70.40
2019-03-13T15:27:00.502Z,70.30
2019-03-13T15:28:36.733Z,70.50
2019-03-13T15:30:27.671Z,70.90
2019-03-13T15:32:03.696Z,70.90
2019-03-13T15:33:39.786Z,70.70
2019-03-13T15:35:16.083Z,70.70
2019-03-13T15:36:52.254Z,70.30
2019-03-13T15:38:28.450Z,70.40
2019-03-13T15:40:07.257Z,70.50
2019-03-13T15:41:43.413Z,70.60
2019-03-13T15:43:19.660Z,70.90
2019-03-13T15:44:55.779Z,71.00
2019-03-13T15:46:32.932Z,71.10
2019-03-13T15:48:10.452Z,71.60
2019-03-13T15:49:46.643Z,71.90
2019-03-13T15:51:22.696Z,72.20
2019-03-13T15:52:58.918Z,72.70
2019-03-13T15:54:35.069Z,72.80
2019-03-13T15:56:11.447Z,73.10
2019-03-13T15:57:47.575Z,73.00
2019-03-13T15:59:23.718Z,73.10
2019-03-13T16:00:59.874Z,73.20
2019-03-13T16:02:36.082Z,73.50
2019-03-13T16:04:12.309Z,73.90
2019-03-13T16:05:48.459Z,74.00
2019-03-13T16:07:25.763Z,74.30
2019-03-13T16:09:01.901Z,74.80
2019-03-13T16:10:38.484Z,75.00
2019-03-13T16:12:14.791Z,75.40
2019-03-13T16:13:50.892Z,75.80
2019-03-13T16:15:41.867Z,76.00
2019-03-13T16:17:18.031Z,76.20
2019-03-13T16:18:54.056Z,76.50
2019-03-13T16:20:30.262Z,76.70
2019-03-13T16:22:07.637Z,76.90
2019-03-13T16:23:43.870Z,77.30
2019-03-13T16:25:20.028Z,77.50
2019-03-13T16:26:56.087Z,78.00
2019-03-13T16:28:32.314Z,78.00
2019-03-13T16:30:22.408Z,78.30
2019-03-13T16:31:58.903Z,78.60
2019-03-13T16:33:34.861Z,78.90
2019-03-13T16:35:11.459Z,79.10
2019-03-13T16:36:47.487Z,79.40
2019-03-13T16:38:24.419Z,80.00
2019-03-13T16:40:00.420Z,79.90
2019-03-13T16:41:36.555Z,80.00
2019-03-13T16:43:12.781Z,80.20
2019-03-13T16:44:48.758Z,80.50
2019-03-13T16:46:24.938Z,80.70
2019-03-13T16:48:01.148Z,81.00
2019-03-13T16:49:39.195Z,81.10
2019-03-13T16:51:15.261Z,81.40
2019-03-13T16:52:51.253Z,81.40
2019-03-13T16:54:27.496Z,81.50
2019-03-13T16:56:03.739Z,81.90
2019-03-13T16:57:39.967Z,82.00
2019-03-13T16:59:17.431Z,82.30
2019-03-13T17:00:53.738Z,82.50
2019-03-13T17:02:30.048Z,82.90
2019-03-13T17:04:06.371Z,82.80
2019-03-13T17:05:42.572Z,83.00
2019-03-13T17:07:18.712Z,83.30
2019-03-13T17:08:54.852Z,83.30
2019-03-13T17:10:32.356Z,83.70
2019-03-13T17:12:08.617Z,83.50
2019-03-13T17:13:44.823Z,83.90
2019-03-13T17:15:22.958Z,84.40
2019-03-13T17:16:59.152Z,84.60
2019-03-13T17:18:35.288Z,85.70
2019-03-13T17:20:18.406Z,85.00
2019-03-13T17:21:54.715Z,85.00
2019-03-13T17:23:30.996Z,85.40
2019-03-13T17:25:11.890Z,85.60
2019-03-13T17:26:48.104Z,86.00
2019-03-13T17:28:25.614Z,86.00
2019-03-13T17:30:01.867Z,86.30
2019-03-13T17:31:38.008Z,86.70
2019-03-13T17:33:14.311Z,86.70
2019-03-13T17:34:50.450Z,86.70
2019-03-13T17:36:26.633Z,87.10
2019-03-13T17:38:02.705Z,87.70
2019-03-13T17:39:38.839Z,88.20
2019-03-13T17:41:15.147Z,88.40
2019-03-13T17:42:51.358Z,89.20
2019-03-13T17:44:27.492Z,89.40
2019-03-13T17:46:06.890Z,89.70
2019-03-13T17:47:41.686Z,90.00
2019-03-13T17:49:17.907Z,90.10
2019-03-13T17:50:53.963Z,90.30
2019-03-13T17:52:30.136Z,90.40
2019-03-13T17:54:06.465Z,90.60
2019-03-13T17:55:42.696Z,90.60
2019-03-13T17:57:18.836Z,90.60
2019-03-13T17:58:54.977Z,90.70
2019-03-13T18:00:36.306Z,90.70
2019-03-13T18:02:12.165Z,90.80
2019-03-13T18:03:49.968Z,90.80
2019-03-13T18:05:26.430Z,90.90
2019-03-13T18:07:02.646Z,90.80
2019-03-13T18:08:38.878Z,90.70
2019-03-13T18:10:20.397Z,90.70
2019-03-13T18:11:56.563Z,90.70
2019-03-13T18:13:32.730Z,90.80
2019-03-13T18:15:12.327Z,90.90
2019-03-13T18:16:48.382Z,90.90
2019-03-13T18:18:26.000Z,91.00
2019-03-13T18:20:02.169Z,90.90
2019-03-13T18:21:38.372Z,91.50
2019-03-13T18:23:14.535Z,91.10
2019-03-13T18:24:50.594Z,91.10
2019-03-13T18:26:26.927Z,91.30
2019-03-13T18:28:03.728Z,91.20
2019-03-13T18:29:39.907Z,91.00
2019-03-13T18:31:16.221Z,91.40
2019-03-13T18:32:53.682Z,91.40
2019-03-13T18:34:29.912Z,91.40
2019-03-13T18:36:06.242Z,91.70
2019-03-13T18:37:42.463Z,91.40
2019-03-13T18:39:18.610Z,91.30
2019-03-13T18:40:54.842Z,91.30
2019-03-13T18:42:31.047Z,91.30
2019-03-13T18:44:07.370Z,91.30
2019-03-13T18:45:43.538Z,91.20
2019-03-13T18:47:19.845Z,91.20
2019-03-13T18:48:55.963Z,91.10
2019-03-13T18:50:32.262Z,91.20
2019-03-13T18:52:08.574Z,91.30
2019-03-13T18:53:44.800Z,91.50
2019-03-13T18:55:26.889Z,91.70
2019-03-13T18:57:03.118Z,91.80
2019-03-13T18:58:40.387Z,92.00
2019-03-13T19:00:26.060Z,92.50
2019-03-13T19:02:02.213Z,92.50
2019-03-13T19:03:38.277Z,92.50
2019-03-13T19:05:15.611Z,92.40
2019-03-13T19:06:51.841Z,92.60
2019-03-13T19:08:27.999Z,92.60
2019-03-13T19:10:06.809Z,92.70
2019-03-13T19:11:43.039Z,92.80
2019-03-13T19:13:19.281Z,92.70
2019-03-13T19:14:55.404Z,92.80
2019-03-13T19:16:31.584Z,93.00
2019-03-13T19:18:07.818Z,93.10
2019-03-13T19:19:43.971Z,93.20
2019-03-13T19:21:20.101Z,93.20
2019-03-13T19:22:56.421Z,93.20
2019-03-13T19:24:32.656Z,93.20
2019-03-13T19:26:08.897Z,93.20
2019-03-13T19:27:45.104Z,93.30
2019-03-13T19:29:21.182Z,93.20
2019-03-13T19:30:57.290Z,93.20
2019-03-13T19:32:33.427Z,93.10
2019-03-13T19:34:09.500Z,93.20
2019-03-13T19:35:45.697Z,93.20
2019-03-13T19:37:21.780Z,93.30
2019-03-13T19:38:57.915Z,93.10
2019-03-13T19:40:34.223Z,93.10
2019-03-13T19:42:10.385Z,93.20
2019-03-13T19:43:47.751Z,93.10
2019-03-13T19:45:34.215Z,93.10
2019-03-13T19:47:10.351Z,93.20
2019-03-13T19:48:46.597Z,93.10
2019-03-13T19:50:22.740Z,93.20
2019-03-13T19:51:58.886Z,93.10
2019-03-13T19:53:35.033Z,93.10
2019-03-13T19:55:14.340Z,93.20
2019-03-13T19:56:50.764Z,93.20
2019-03-13T19:58:26.872Z,93.30
2019-03-13T20:00:03.432Z,93.30
2019-03-13T20:01:39.740Z,93.20
2019-03-13T20:03:19.976Z,93.10
2019-03-13T20:04:56.053Z,93.10
2019-03-13T20:06:41.761Z,93.10
2019-03-13T20:08:09.917Z,93.10
2019-03-13T20:09:46.168Z,93.10
2019-03-13T20:11:22.698Z,93.00
2019-03-13T20:12:59.179Z,92.90
2019-03-13T20:14:35.413Z,92.90
2019-03-13T20:16:11.723Z,92.90
2019-03-13T20:17:47.992Z,93.10
2019-03-13T20:19:24.229Z,93.30
2019-03-13T20:21:00.415Z,92.90
2019-03-13T20:22:38.070Z,93.00
2019-03-13T20:24:14.207Z,93.00
2019-03-13T20:25:50.417Z,93.00
2019-03-13T20:27:26.783Z,93.00
2019-03-13T20:29:03.205Z,93.00
2019-03-13T20:30:39.477Z,92.90
2019-03-13T20:32:15.337Z,92.80
2019-03-13T20:33:51.409Z,92.90
2019-03-13T20:35:27.658Z,93.00
2019-03-13T20:37:03.883Z,93.00
2019-03-13T20:38:40.010Z,92.90
2019-03-13T20:40:25.343Z,93.10
2019-03-13T20:42:01.660Z,93.00
2019-03-13T20:43:37.669Z,93.00
2019-03-13T20:45:17.890Z,93.40
2019-03-13T20:46:54.067Z,92.90
2019-03-13T20:48:30.366Z,93.00
2019-03-13T20:50:09.112Z,92.90
2019-03-13T20:51:45.349Z,93.10
2019-03-13T20:53:21.568Z,93.10
2019-03-13T20:54:57.663Z,93.30
2019-03-13T20:56:33.892Z,93.20
2019-03-13T20:58:11.328Z,93.20
2019-03-13T20:59:47.545Z,93.10
2019-03-13T21:01:23.896Z,93.00
2019-03-13T21:03:00.323Z,92.90
2019-03-13T21:04:36.552Z,92.80
2019-03-13T21:06:12.791Z,92.80
2019-03-13T21:07:48.925Z,92.80
2019-03-13T21:09:25.138Z,92.70
2019-03-13T21:11:01.598Z,92.60
2019-03-13T21:12:37.690Z,92.60
2019-03-13T21:14:13.826Z,92.60
2019-03-13T21:15:49.966Z,92.50
2019-03-13T21:17:26.132Z,92.60